Map

Track Data

SID SEASON NUMBER BASIN SUBBASIN NAME ISO_TIME NATURE LAT LON WMO_WIND WMO_PRES WMO_AGENCY TRACK_TYPE DIST2LAND LANDFALL IFLAG USA_AGENCY USA_ATCF_ID USA_LAT USA_LON USA_RECORD USA_STATUS USA_WIND USA_PRES USA_SSHS USA_R34_NE USA_R34_SE USA_R34_SW USA_R34_NW USA_R50_NE USA_R50_SE USA_R50_SW USA_R50_NW USA_R64_NE USA_R64_SE USA_R64_SW USA_R64_NW USA_POCI USA_ROCI USA_RMW USA_EYE TOKYO_LAT TOKYO_LON TOKYO_GRADE TOKYO_WIND TOKYO_PRES TOKYO_R50_DIR TOKYO_R50_LONG TOKYO_R50_SHORT TOKYO_R30_DIR TOKYO_R30_LONG TOKYO_R30_SHORT TOKYO_LAND CMA_LAT CMA_LON CMA_CAT CMA_WIND CMA_PRES HKO_LAT HKO_LON HKO_CAT HKO_WIND HKO_PRES NEWDELHI_LAT NEWDELHI_LON NEWDELHI_GRADE NEWDELHI_WIND NEWDELHI_PRES NEWDELHI_CI NEWDELHI_DP NEWDELHI_POCI REUNION_LAT REUNION_LON REUNION_TYPE REUNION_WIND REUNION_PRES REUNION_TNUM REUNION_CI REUNION_RMW REUNION_R34_NE REUNION_R34_SE REUNION_R34_SW REUNION_R34_NW REUNION_R50_NE REUNION_R50_SE REUNION_R50_SW REUNION_R50_NW REUNION_R64_NE REUNION_R64_SE REUNION_R64_SW REUNION_R64_NW BOM_LAT BOM_LON BOM_TYPE BOM_WIND BOM_PRES BOM_TNUM BOM_CI BOM_RMW BOM_R34_NE BOM_R34_SE BOM_R34_SW BOM_R34_NW BOM_R50_NE BOM_R50_SE BOM_R50_SW BOM_R50_NW BOM_R64_NE BOM_R64_SE BOM_R64_SW BOM_R64_NW BOM_ROCI BOM_POCI BOM_EYE BOM_POS_METHOD BOM_PRES_METHOD NADI_LAT NADI_LON NADI_CAT NADI_WIND NADI_PRES WELLINGTON_LAT WELLINGTON_LON WELLINGTON_WIND WELLINGTON_PRES DS824_LAT DS824_LON DS824_STAGE DS824_WIND DS824_PRES TD9636_LAT TD9636_LON TD9636_STAGE TD9636_WIND TD9636_PRES TD9635_LAT TD9635_LON TD9635_WIND TD9635_PRES TD9635_ROCI NEUMANN_LAT NEUMANN_LON NEUMANN_CLASS NEUMANN_WIND NEUMANN_PRES MLC_LAT MLC_LON MLC_CLASS MLC_WIND MLC_PRES USA_GUST BOM_GUST BOM_GUST_PER REUNION_GUST REUNION_GUST_PER USA_SEAHGT USA_SEARAD_NE USA_SEARAD_SE USA_SEARAD_SW USA_SEARAD_NW STORM_SPEED STORM_DIR
1892251N18091 1892 40 NI BB NOT_NAMED 1892-09-07 00:00:00 TS 18.1000 90.8000 main 314 313 _________O____ -1 18.1000 90.8000 TC 34 3 298
1892251N18091 1892 40 NI BB NOT_NAMED 1892-09-07 03:00:00 TS 18.1650 90.6750 main 313 313 _________PO___ -1 18.1975 90.6125 TC 36 18.1000 90.8000 2 4 297
1892251N18091 1892 40 NI BB NOT_NAMED 1892-09-07 06:00:00 TS 18.2632 90.4651 main 321 321 _________OP___ -1 18.3000 90.4000 TC 39 18.2081 90.5628 2 5 295
1892251N18091 1892 40 NI BB NOT_NAMED 1892-09-07 09:00:00 TS 18.3669 90.2273 main 337 337 _________PP___ -1 18.4075 90.1500 TC 42 18.3128 90.3303 2 5 294
1892251N18091 1892 40 NI BB NOT_NAMED 1892-09-07 12:00:00 TS 18.4556 90.0038 main 347 347 _________OP___ -1 18.5000 89.9000 TC 45 18.4111 90.1077 2 4 291
1892251N18091 1892 40 NI BB NOT_NAMED 1892-09-07 15:00:00 TS 18.5250 89.7925 main 354 339 _________PO___ -1 18.5500 89.6849 TC 45 18.5000 89.9000 3 4 290
1892251N18091 1892 40 NI BB NOT_NAMED 1892-09-07 18:00:00 TS 18.5890 89.6052 main 339 327 _________OP___ -1 18.6000 89.5000 TC 45 18.5780 89.7105 3 4 294
1892251N18091 1892 40 NI BB NOT_NAMED 1892-09-07 21:00:00 TS 18.6711 89.4424 main 325 313 _________PP___ -1 18.6924 89.3500 TC 45 18.6498 89.5348 3 4 299
1892251N18091 1892 40 NI BB NOT_NAMED 1892-09-08 00:00:00 TS 18.7609 89.2834 main 313 302 _________OP___ -1 18.8000 89.2000 TC 45 18.7218 89.3667 3 4 299
1892251N18091 1892 40 NI BB NOT_NAMED 1892-09-08 03:00:00 TS 18.8500 89.1000 main 296 278 _________PO___ -1 18.9000 89.0000 TC 45 18.8000 89.2000 3 4 298
1892251N18091 1892 40 NI BB NOT_NAMED 1892-09-08 06:00:00 TS 18.9484 88.9105 main 278 263 _________OP___ -1 19.0000 88.8000 TC 45 18.8969 89.0210 3 4 301
1892251N18091 1892 40 NI BB NOT_NAMED 1892-09-08 09:00:00 TS 19.0500 88.7425 main 254 239 _________PP___ -1 19.1000 88.6425 TC 45 19.0000 88.8425 3 4 303
1892251N18091 1892 40 NI BB NOT_NAMED 1892-09-08 12:00:00 TS 19.1516 88.5839 main 233 216 _________OP___ -1 19.2000 88.5000 TC 45 19.1031 88.6678 3 4 304
1892251N18091 1892 40 NI BB NOT_NAMED 1892-09-08 15:00:00 TS 19.2537 88.4250 main 210 201 _________PO___ -1 19.3075 88.3500 TC 45 19.2000 88.5000 3 3 304
1892251N18091 1892 40 NI BB NOT_NAMED 1892-09-08 18:00:00 TS 19.3347 88.2976 main 201 186 _________OP___ -1 19.4000 88.2000 TC 45 19.2694 88.3952 3 3 301
1892251N18091 1892 40 NI BB NOT_NAMED 1892-09-08 21:00:00 TS 19.3882 88.1920 main 186 169 _________PP___ -1 19.4423 88.0948 TC 45 19.3341 88.2893 3 3 294
1892251N18091 1892 40 NI BB NOT_NAMED 1892-09-09 00:00:00 TS 19.4534 88.0194 main 162 130 _________OP___ -1 19.5000 87.9000 TC 45 19.4067 88.1388 3 5 291
1892251N18091 1892 40 NI BB NOT_NAMED 1892-09-09 03:00:00 TS 19.5675 87.7013 main 130 91 _________PO___ -1 19.6351 87.5026 TC 41 19.5000 87.9000 3 8 290
1892251N18091 1892 40 NI BB NOT_NAMED 1892-09-09 06:00:00 TS 19.7145 87.2553 main 91 43 _________OP___ -1 19.8000 87.0000 TC 37 19.6291 87.5106 3 9 289
1892251N18091 1892 40 NI BB NOT_NAMED 1892-09-09 09:00:00 TS 19.8642 86.7664 main 43 0 _________PP___ -1 19.9500 86.4999 TC 33 19.7784 87.0329 3 10 288
1892251N18091 1892 40 NI BB NOT_NAMED 1892-09-09 12:00:00 TS 20.0192 86.2568 main 0 0 _________OP___ -1 20.1000 86.0000 TC 30 19.9384 86.5137 3 10 288
1892251N18091 1892 40 NI BB NOT_NAMED 1892-09-09 15:00:00 TS 20.1749 85.7675 main 0 0 _________PO___ -1 20.2499 85.5349 TC 30 20.1000 86.0000 1 9 289
1892251N18091 1892 40 NI BB NOT_NAMED 1892-09-09 18:00:00 TS 20.3228 85.3221 main 0 0 _________OP___ -1 20.4000 85.1000 TC 30 20.2457 85.5441 1 9 290
1892251N18091 1892 40 NI BB NOT_NAMED 1892-09-09 21:00:00 TS 20.4711 84.8948 main 0 0 _________PP___ -1 20.5499 84.6849 TC 30 20.3923 85.1047 1 8 291
1892251N18091 1892 40 NI BB NOT_NAMED 1892-09-10 00:00:00 TS 20.6213 84.4940 main 0 0 _________OP___ -1 20.7000 84.3000 TC 30 20.5427 84.6879 1 8 292
1892251N18091 1892 40 NI BB NOT_NAMED 1892-09-10 03:00:00 TS 20.7712 84.1174 main 0 0 _________PO___ -1 20.8424 83.9349 TC 30 20.7000 84.3000 1 7 295
1892251N18091 1892 40 NI BB NOT_NAMED 1892-09-10 06:00:00 TS 20.9296 83.7729 main 0 0 _________OP___ -1 21.0000 83.6000 TC 30 20.8592 83.9458 1 7 298
1892251N18091 1892 40 NI BB NOT_NAMED 1892-09-10 09:00:00 TS 21.1059 83.4559 main 0 0 _________PP___ -1 21.1849 83.2924 TC 30 21.0269 83.6194 1 7 303
1892251N18091 1892 40 NI BB NOT_NAMED 1892-09-10 12:00:00 TS 21.3031 83.1542 main 0 0 _________OP___ -1 21.4000 83.0000 TC 30 21.2061 83.3083 1 7 307
1892251N18091 1892 40 NI BB NOT_NAMED 1892-09-10 15:00:00 TS 21.5250 82.8537 main 0 0 _________PO___ -1 21.6499 82.7075 TC 30 21.4000 83.0000 1 7 308
1892251N18091 1892 40 NI BB NOT_NAMED 1892-09-10 18:00:00 TS 21.7489 82.5493 main 0 0 _________OP___ -1 21.9000 82.4000 TC 30 21.5979 82.6987 1 7 307
1892251N18091 1892 40 NI BB NOT_NAMED 1892-09-10 21:00:00 TS 21.9520 82.2330 main 0 0 _________PP___ -1 22.0924 82.0722 TC 30 21.8116 82.3939 1 8 304
1892251N18091 1892 40 NI BB NOT_NAMED 1892-09-11 00:00:00 TS 22.1723 81.8836 main 0 0 _________OP___ -1 22.3000 81.7000 TC 30 22.0446 82.0672 1 8 305
1892251N18091 1892 40 NI BB NOT_NAMED 1892-09-11 03:00:00 TS 22.4425 81.4862 main 0 0 _________PO___ -1 22.5849 81.2725 TC 30 22.3000 81.7000 1 10 306
1892251N18091 1892 40 NI BB NOT_NAMED 1892-09-11 06:00:00 TS 22.7372 81.0380 main 0 0 _________OP___ -1 22.9000 80.8000 TC 30 22.5743 81.2761 1 10 305
1892251N18091 1892 40 NI BB NOT_NAMED 1892-09-11 09:00:00 TS 23.0312 80.5584 main 0 0 _________PP___ -1 23.1924 80.3072 TC 30 22.8699 80.8096 1 11 304
1892251N18091 1892 40 NI BB NOT_NAMED 1892-09-11 12:00:00 TS 23.3402 80.0567 main 0 0 _________OP___ -1 23.5000 79.8000 TC 30 23.1805 80.3133 1 11 305
1892251N18091 1892 40 NI BB NOT_NAMED 1892-09-11 15:00:00 TS 23.6749 79.5537 main 0 0 _________PO___ -1 23.8498 79.3074 TC 30 23.5000 79.8000 1 11 306
1892251N18091 1892 40 NI BB NOT_NAMED 1892-09-11 18:00:00 TS 23.9848 79.0745 main 0 0 _________OP___ -1 24.2000 78.8000 TC 30 23.8234 79.2805 1 11 304
1892251N18091 1892 40 NI BB NOT_NAMED 1892-09-11 21:00:00 TS 24.2944 78.5584 main 0 0 _________PP___ -1 24.5130 78.2605 TC 30 24.1487 78.7570 1 11 303
1892251N18091 1892 40 NI BB NOT_NAMED 1892-09-12 00:00:00 TS 24.5831 78.0534 main 0 0 _________OP___ -1 24.8000 77.7000 TC 30 24.4747 78.2301 1 9 303
1892251N18091 1892 40 NI AS NOT_NAMED 1892-09-12 03:00:00 NR 24.8000 77.7000 main 0 __________O___ -1 TC 24.8000 77.7000 1 8 304

About IBTrACS Database

This database is a web-friendly format of International Best Track Archive for Climate Stewardship (IBTrACS), a global best track data archive curated by NOAA dating back to 1842.

Updated: 2021-10-08